Time;durP1;ratioP1;P1;durP2;ratioP2;P2;SDS_P1;SDS_P2;PMS_P1;PMS_P2;Temp;Humidity;BMP_temperature;BMP_pressure;BME280_temperature;BME280_humidity;BME280_pressure;Samples;Min_cycle;Max_cycle;Signal;HPM_P1;HPM_P2
2022/11/02 00:01:20;;;;;;;;;;;11.50;94.40;;;;;;5041905;28;19929;-74
2022/11/02 00:03:47;;;;;;;;;;;11.50;94.50;;;;;;5045604;28;20388;-74
2022/11/02 00:06:14;;;;;;;;;;;11.50;94.50;;;;;;5041952;28;20389;-74
2022/11/02 00:08:40;;;;;;;;;;;11.50;94.50;;;;;;5043099;28;19929;-74
2022/11/02 00:11:07;;;;;;;;;;;11.40;94.50;;;;;;5039458;28;19929;-74
2022/11/02 00:13:33;;;;;;;;;;;11.40;94.50;;;;;;5036031;28;19933;-74
2022/11/02 00:16:01;;;;;;;;;;;11.40;94.50;;;;;;5040058;28;19929;-74
2022/11/02 00:18:29;;;;;;;;;;;11.40;94.50;;;;;;5045025;28;19936;-74
2022/11/02 00:20:56;;;;;;;;;;;11.40;94.90;;;;;;5036191;28;19929;-73
2022/11/02 00:23:22;;;;;;;;;;;11.40;94.60;;;;;;5042158;28;19936;-74
2022/11/02 00:25:50;;;;;;;;;;;11.40;94.60;;;;;;5032125;28;19929;-74
2022/11/02 00:28:17;;;;;;;;;;;11.30;94.60;;;;;;5044116;28;20399;-74
2022/11/02 00:30:43;;;;;;;;;;;11.40;94.60;;;;;;5033637;28;19935;-74
2022/11/02 00:33:10;;;;;;;;;;;11.30;94.60;;;;;;5043482;28;20456;-74
2022/11/02 00:35:38;;;;;;;;;;;11.30;94.60;;;;;;5044280;28;19932;-74
2022/11/02 00:38:05;;;;;;;;;;;11.30;94.70;;;;;;5038698;28;19933;-74
2022/11/02 00:40:32;;;;;;;;;;;11.30;94.70;;;;;;5040929;28;19928;-74
2022/11/02 00:42:58;;;;;;;;;;;11.30;94.70;;;;;;5037499;28;19936;-73
2022/11/02 00:45:25;;;;;;;;;;;11.30;94.70;;;;;;5038911;28;20106;-73
2022/11/02 00:47:51;;;;;;;;;;;11.20;94.70;;;;;;5037687;28;20321;-74
2022/11/02 00:50:18;;;;;;;;;;;11.20;94.70;;;;;;5037761;28;19929;-74
2022/11/02 00:52:46;;;;;;;;;;;11.20;94.70;;;;;;5039250;28;19932;-74
2022/11/02 00:55:13;;;;;;;;;;;11.20;94.80;;;;;;5043503;28;19929;-74
2022/11/02 00:57:40;;;;;;;;;;;11.20;94.80;;;;;;5041687;28;20396;-74
2022/11/02 01:00:08;;;;;;;;;;;11.20;94.80;;;;;;5040836;28;19936;-74
2022/11/02 01:02:35;;;;;;;;;;;11.20;94.80;;;;;;5041156;28;19945;-74
2022/11/02 01:05:02;;;;;;;;;;;11.10;94.70;;;;;;5038716;28;19929;-74
2022/11/02 01:07:28;;;;;;;;;;;11.10;94.80;;;;;;5042260;28;20036;-73
2022/11/02 01:09:56;;;;;;;;;;;11.10;94.80;;;;;;5036841;28;19933;-73
2022/11/02 01:12:23;;;;;;;;;;;11.10;94.80;;;;;;5041951;28;20020;-73
2022/11/02 01:14:50;;;;;;;;;;;11.10;94.80;;;;;;5042131;28;20640;-73
2022/11/02 01:17:17;;;;;;;;;;;11.10;94.80;;;;;;5041957;28;19929;-73
2022/11/02 01:19:43;;;;;;;;;;;11.10;94.80;;;;;;5041542;28;20402;-74
2022/11/02 01:22:10;;;;;;;;;;;11.10;94.80;;;;;;5036986;28;19928;-74
2022/11/02 01:24:37;;;;;;;;;;;11.00;94.80;;;;;;5037019;28;19955;-74
2022/11/02 01:27:04;;;;;;;;;;;11.10;94.80;;;;;;5037661;28;19929;-74
2022/11/02 01:29:31;;;;;;;;;;;11.00;94.80;;;;;;5041224;28;19936;-74
2022/11/02 01:31:58;;;;;;;;;;;11.00;94.80;;;;;;5037617;28;20396;-74
2022/11/02 01:34:24;;;;;;;;;;;11.00;94.80;;;;;;5044023;28;20039;-73
2022/11/02 01:36:51;;;;;;;;;;;11.00;94.80;;;;;;5043177;28;19939;-74
2022/11/02 01:39:17;;;;;;;;;;;11.00;94.80;;;;;;5039935;28;20588;-73
2022/11/02 01:41:44;;;;;;;;;;;11.00;94.90;;;;;;5043078;28;19929;-74
2022/11/02 01:44:29;;;;;;;;;;;11.00;94.90;;;;;;5035200;28;19925;-73
2022/11/02 01:46:58;;;;;;;;;;;10.90;94.90;;;;;;5035394;28;20055;-73
2022/11/02 01:49:25;;;;;;;;;;;10.90;94.90;;;;;;5042050;28;19928;-73
2022/11/02 01:51:56;;;;;;;;;;;10.90;94.90;;;;;;5039903;28;20576;-73
2022/11/02 01:54:24;;;;;;;;;;;10.90;94.90;;;;;;5039084;28;19972;-74
2022/11/02 01:56:53;;;;;;;;;;;10.90;94.90;;;;;;5040068;28;19929;-73
2022/11/02 01:59:23;;;;;;;;;;;10.90;95.00;;;;;;5042717;28;21075;-73
2022/11/02 02:01:51;;;;;;;;;;;10.90;95.00;;;;;;5035630;28;19929;-73
2022/11/02 02:04:18;;;;;;;;;;;10.90;95.00;;;;;;5047039;28;19972;-74
2022/11/02 02:06:44;;;;;;;;;;;10.90;95.00;;;;;;5046942;28;19928;-73
2022/11/02 02:09:12;;;;;;;;;;;10.80;95.00;;;;;;5040014;28;19935;-74
2022/11/02 02:11:39;;;;;;;;;;;10.90;95.00;;;;;;5042696;28;20381;-73
2022/11/02 02:14:07;;;;;;;;;;;10.90;95.00;;;;;;5042211;28;19933;-73
2022/11/02 02:16:45;;;;;;;;;;;10.80;95.00;;;;;;5046239;28;20012;-74
2022/11/02 02:19:17;;;;;;;;;;;10.80;95.00;;;;;;5046402;28;19929;-73
2022/11/02 02:21:50;;;;;;;;;;;10.80;95.00;;;;;;5038472;28;20309;-74
2022/11/02 02:24:27;;;;;;;;;;;10.80;95.10;;;;;;5039745;28;19933;-74
2022/11/02 02:27:00;;;;;;;;;;;10.80;95.10;;;;;;5037756;28;19929;-74
2022/11/02 02:29:31;;;;;;;;;;;10.80;95.10;;;;;;5045049;28;19933;-74
2022/11/02 02:31:58;;;;;;;;;;;10.80;95.10;;;;;;5040745;28;19929;-73
2022/11/02 02:34:27;;;;;;;;;;;10.80;95.10;;;;;;5047414;28;19929;-74
2022/11/02 02:36:57;;;;;;;;;;;10.80;95.20;;;;;;5046463;28;19949;-73
2022/11/02 02:39:26;;;;;;;;;;;10.80;95.20;;;;;;5041434;28;19928;-73
2022/11/02 02:41:57;;;;;;;;;;;10.80;95.20;;;;;;5046551;28;19928;-73
2022/11/02 02:44:25;;;;;;;;;;;10.80;95.20;;;;;;5040820;28;20308;-73
2022/11/02 02:46:56;;;;;;;;;;;10.70;95.20;;;;;;5039225;28;20393;-74
2022/11/02 02:49:26;;;;;;;;;;;10.80;95.20;;;;;;5042980;28;20482;-73
2022/11/02 02:51:55;;;;;;;;;;;10.70;95.20;;;;;;5040702;28;19963;-73
2022/11/02 02:54:23;;;;;;;;;;;10.70;95.20;;;;;;5042520;28;19935;-73
2022/11/02 02:56:51;;;;;;;;;;;10.70;95.20;;;;;;5044834;28;19936;-73
2022/11/02 02:59:20;;;;;;;;;;;10.70;95.20;;;;;;5045804;28;19936;-73
2022/11/02 03:01:47;;;;;;;;;;;10.70;95.20;;;;;;5037413;28;19937;-71
2022/11/02 03:04:15;;;;;;;;;;;10.70;95.20;;;;;;5044062;28;19935;-73
2022/11/02 03:06:44;;;;;;;;;;;10.70;95.30;;;;;;5044706;28;19940;-73
2022/11/02 03:09:14;;;;;;;;;;;10.70;95.30;;;;;;5042113;28;20339;-73
2022/11/02 03:11:46;;;;;;;;;;;10.70;95.30;;;;;;5046628;28;19929;-73
2022/11/02 03:14:18;;;;;;;;;;;10.70;95.30;;;;;;5037668;28;19929;-74
2022/11/02 03:16:54;;;;;;;;;;;10.70;95.30;;;;;;5043291;28;19939;-73
2022/11/02 03:19:30;;;;;;;;;;;10.70;95.30;;;;;;5042573;28;19936;-74
2022/11/02 03:22:00;;;;;;;;;;;10.70;95.30;;;;;;5038470;28;19932;-74
2022/11/02 03:24:29;;;;;;;;;;;10.70;95.30;;;;;;5038330;28;19972;-74
2022/11/02 03:27:04;;;;;;;;;;;10.70;95.30;;;;;;5039462;28;19929;-74
2022/11/02 03:29:36;;;;;;;;;;;10.60;95.30;;;;;;5039947;28;20042;-73
2022/11/02 03:32:06;;;;;;;;;;;10.60;95.30;;;;;;5035486;28;19932;-73
2022/11/02 03:34:37;;;;;;;;;;;10.60;95.30;;;;;;5045878;28;19929;-74
2022/11/02 03:37:06;;;;;;;;;;;10.60;95.30;;;;;;5041814;28;19944;-74
2022/11/02 03:39:34;;;;;;;;;;;10.60;95.30;;;;;;5040791;28;19936;-74
2022/11/02 03:42:02;;;;;;;;;;;10.60;95.30;;;;;;5040409;28;20026;-74
2022/11/02 03:44:29;;;;;;;;;;;10.60;95.30;;;;;;5044885;28;20038;-74
2022/11/02 03:46:58;;;;;;;;;;;10.60;95.30;;;;;;5040875;28;19948;-74
2022/11/02 03:49:26;;;;;;;;;;;10.60;95.30;;;;;;5041643;28;19929;-73
2022/11/02 03:51:55;;;;;;;;;;;10.60;95.40;;;;;;5042306;28;20005;-74
2022/11/02 03:54:24;;;;;;;;;;;10.60;95.30;;;;;;5037368;28;19963;-73
2022/11/02 03:56:53;;;;;;;;;;;10.60;95.30;;;;;;5042204;28;19936;-73
2022/11/02 03:59:19;;;;;;;;;;;10.60;95.40;;;;;;5040913;28;19932;-74
2022/11/02 04:01:47;;;;;;;;;;;10.50;95.30;;;;;;5036540;28;19944;-74
2022/11/02 04:04:14;;;;;;;;;;;10.50;95.30;;;;;;5044709;28;19928;-74
2022/11/02 04:06:41;;;;;;;;;;;10.50;95.30;;;;;;5042094;28;20676;-73
2022/11/02 04:09:09;;;;;;;;;;;10.50;95.30;;;;;;5040130;28;19929;-73
2022/11/02 04:14:38;;;;;;;;;;;10.50;95.30;;;;;;5037641;28;19936;-73
2022/11/02 04:19:50;;;;;;;;;;;10.50;95.30;;;;;;5044263;28;19931;-73
2022/11/02 04:25:20;;;;;;;;;;;10.50;95.30;;;;;;5037333;28;20484;-73
2022/11/02 04:27:47;;;;;;;;;;;10.40;95.30;;;;;;5044076;28;20297;-73
2022/11/02 04:30:15;;;;;;;;;;;10.40;95.30;;;;;;5041808;28;21075;-74
2022/11/02 04:35:27;;;;;;;;;;;10.40;95.40;;;;;;5043672;28;19951;-73
2022/11/02 04:40:39;;;;;;;;;;;10.40;95.40;;;;;;5041911;28;19974;-74
2022/11/02 04:43:05;;;;;;;;;;;10.40;95.40;;;;;;5043169;28;19929;-73
2022/11/02 04:45:32;;;;;;;;;;;10.40;95.40;;;;;;5034661;28;19964;-73
2022/11/02 04:48:01;;;;;;;;;;;10.40;95.40;;;;;;5042187;28;20415;-73
2022/11/02 04:50:28;;;;;;;;;;;10.30;95.40;;;;;;5039560;28;19935;-73
2022/11/02 04:52:55;;;;;;;;;;;10.40;95.50;;;;;;5037867;28;19932;-73
2022/11/02 04:55:21;;;;;;;;;;;10.40;95.50;;;;;;5044107;28;19936;-74
2022/11/02 04:57:49;;;;;;;;;;;10.30;95.40;;;;;;5039407;28;19928;-74
2022/11/02 05:00:17;;;;;;;;;;;10.30;95.40;;;;;;5039950;28;19924;-74
2022/11/02 05:02:43;;;;;;;;;;;10.30;95.50;;;;;;5039387;28;19933;-73
2022/11/02 05:05:11;;;;;;;;;;;10.30;95.50;;;;;;5037202;28;19929;-73
2022/11/02 05:07:37;;;;;;;;;;;10.30;95.50;;;;;;5035028;28;19929;-74
2022/11/02 05:10:04;;;;;;;;;;;10.30;95.50;;;;;;5037850;28;19933;-73
2022/11/02 05:12:31;;;;;;;;;;;10.30;95.50;;;;;;5041698;28;19936;-74
2022/11/02 05:14:59;;;;;;;;;;;10.30;95.60;;;;;;5041896;28;19929;-74
2022/11/02 05:17:25;;;;;;;;;;;10.30;95.60;;;;;;5041461;28;19933;-73
2022/11/02 05:19:52;;;;;;;;;;;10.30;95.60;;;;;;5042675;28;19929;-73
2022/11/02 05:22:20;;;;;;;;;;;10.30;95.70;;;;;;5039545;28;20318;-74
2022/11/02 05:24:46;;;;;;;;;;;10.40;95.80;;;;;;5037359;28;20626;-74
2022/11/02 05:27:13;;;;;;;;;;;10.40;95.80;;;;;;5040811;28;19932;-73
2022/11/02 05:29:39;;;;;;;;;;;10.40;95.80;;;;;;5040378;28;19932;-74
2022/11/02 05:32:07;;;;;;;;;;;10.40;95.80;;;;;;5040809;28;19928;-73
2022/11/02 05:34:34;;;;;;;;;;;10.40;95.90;;;;;;5043011;28;19929;-73
2022/11/02 05:37:00;;;;;;;;;;;10.40;95.90;;;;;;5043771;28;19928;-73
2022/11/02 05:39:27;;;;;;;;;;;10.40;95.90;;;;;;5041900;28;19933;-73
2022/11/02 05:41:54;;;;;;;;;;;10.40;95.90;;;;;;5046415;28;19937;-73
2022/11/02 05:44:20;;;;;;;;;;;10.40;95.90;;;;;;5045728;28;19929;-74
2022/11/02 05:46:47;;;;;;;;;;;10.40;96.00;;;;;;5041874;28;19940;-73
2022/11/02 05:49:15;;;;;;;;;;;10.40;96.00;;;;;;5044833;28;20518;-73
2022/11/02 05:51:43;;;;;;;;;;;10.40;96.00;;;;;;5043394;28;19925;-73
2022/11/02 05:54:09;;;;;;;;;;;10.50;96.10;;;;;;5038282;28;20023;-73
2022/11/02 05:56:36;;;;;;;;;;;10.50;96.10;;;;;;5044254;28;19925;-71
2022/11/02 05:59:02;;;;;;;;;;;10.50;96.20;;;;;;5047208;28;19994;-70
2022/11/02 06:01:29;;;;;;;;;;;10.50;96.30;;;;;;5039260;28;19935;-72
2022/11/02 06:03:55;;;;;;;;;;;10.50;96.40;;;;;;5039050;28;19929;-71
2022/11/02 06:06:23;;;;;;;;;;;10.50;96.80;;;;;;5038949;28;20305;-67
2022/11/02 06:08:50;;;;;;;;;;;10.50;96.50;;;;;;5040621;28;19936;-71
2022/11/02 06:11:17;;;;;;;;;;;10.60;96.50;;;;;;5046109;28;19935;-70
2022/11/02 06:13:43;;;;;;;;;;;10.60;96.50;;;;;;5039361;28;19975;-71
2022/11/02 06:16:10;;;;;;;;;;;10.60;96.60;;;;;;5042475;28;19936;-73
2022/11/02 06:18:38;;;;;;;;;;;10.60;96.50;;;;;;5047860;28;20321;-70
2022/11/02 06:21:04;;;;;;;;;;;10.60;96.40;;;;;;5040403;28;19936;-70
2022/11/02 06:23:32;;;;;;;;;;;10.60;96.40;;;;;;5046995;28;20339;-70
2022/11/02 06:26:00;;;;;;;;;;;10.70;96.50;;;;;;5039891;28;19936;-71
2022/11/02 06:28:27;;;;;;;;;;;10.60;96.60;;;;;;5045996;28;20431;-70
2022/11/02 06:30:54;;;;;;;;;;;10.60;96.60;;;;;;5034967;28;19929;-71
2022/11/02 06:33:21;;;;;;;;;;;10.70;96.60;;;;;;5036723;28;19944;-70
2022/11/02 06:35:48;;;;;;;;;;;10.70;96.70;;;;;;5041997;28;19933;-72
2022/11/02 06:38:15;;;;;;;;;;;10.70;96.80;;;;;;5045265;28;19943;-71
2022/11/02 06:40:43;;;;;;;;;;;10.70;96.80;;;;;;5039342;28;20352;-71
2022/11/02 06:43:10;;;;;;;;;;;10.70;96.90;;;;;;5031829;28;19925;-70
2022/11/02 06:45:37;;;;;;;;;;;10.70;96.90;;;;;;5039366;28;19966;-71
2022/11/02 06:48:03;;;;;;;;;;;10.70;96.90;;;;;;5042827;28;19929;-71
2022/11/02 06:50:30;;;;;;;;;;;10.70;96.90;;;;;;5040589;28;19929;-71
2022/11/02 06:52:56;;;;;;;;;;;10.80;97.00;;;;;;5045405;28;19937;-73
2022/11/02 06:55:23;;;;;;;;;;;10.80;96.90;;;;;;5040125;28;19929;-72
2022/11/02 06:57:51;;;;;;;;;;;10.80;96.90;;;;;;5043591;28;19936;-71
2022/11/02 07:00:18;;;;;;;;;;;10.80;96.90;;;;;;5033765;28;19940;-71
2022/11/02 07:02:44;;;;;;;;;;;10.80;96.90;;;;;;5040236;28;20035;-71
2022/11/02 07:05:11;;;;;;;;;;;10.80;96.90;;;;;;5045764;28;19975;-71
2022/11/02 07:07:38;;;;;;;;;;;10.80;96.90;;;;;;5039859;28;19937;-71
2022/11/02 07:10:07;;;;;;;;;;;10.80;97.00;;;;;;5037964;28;19936;-71
2022/11/02 07:12:34;;;;;;;;;;;10.90;97.00;;;;;;5045264;28;20019;-69
2022/11/02 07:15:02;;;;;;;;;;;10.80;96.90;;;;;;5045704;28;19930;-70
2022/11/02 07:17:28;;;;;;;;;;;10.90;97.00;;;;;;5042264;28;19929;-72
2022/11/02 07:19:55;;;;;;;;;;;10.90;97.00;;;;;;5044539;28;19936;-71
2022/11/02 07:22:22;;;;;;;;;;;10.90;97.00;;;;;;5044113;28;19929;-69
2022/11/02 07:24:48;;;;;;;;;;;10.90;97.00;;;;;;5042782;28;19933;-70
2022/11/02 07:27:15;;;;;;;;;;;10.90;97.00;;;;;;5042048;28;19936;-72
2022/11/02 07:29:41;;;;;;;;;;;10.90;96.90;;;;;;5041582;28;19935;-73
2022/11/02 07:32:09;;;;;;;;;;;10.90;96.90;;;;;;5039734;28;19940;-71
2022/11/02 07:34:36;;;;;;;;;;;10.90;96.90;;;;;;5046369;28;19938;-71
2022/11/02 07:37:02;;;;;;;;;;;10.90;96.80;;;;;;5044563;28;20044;-69
2022/11/02 07:39:29;;;;;;;;;;;10.90;96.80;;;;;;5037307;28;19941;-71
2022/11/02 07:41:55;;;;;;;;;;;11.00;96.90;;;;;;5045351;28;20569;-71
2022/11/02 07:44:22;;;;;;;;;;;11.00;96.90;;;;;;5037812;28;19936;-73
2022/11/02 07:46:48;;;;;;;;;;;11.00;96.90;;;;;;5039916;28;19933;-72
2022/11/02 07:49:16;;;;;;;;;;;11.00;97.00;;;;;;5042523;28;19929;-69
2022/11/02 07:51:43;;;;;;;;;;;11.00;97.00;;;;;;5035250;28;20446;-73
2022/11/02 07:54:09;;;;;;;;;;;11.00;97.00;;;;;;5043576;28;20332;-69
2022/11/02 07:56:36;;;;;;;;;;;11.10;97.10;;;;;;5044184;28;19929;-70
2022/11/02 07:59:03;;;;;;;;;;;11.00;97.00;;;;;;5041533;28;20247;-70
2022/11/02 08:01:29;;;;;;;;;;;11.10;97.10;;;;;;5041300;28;19976;-73
2022/11/02 08:03:56;;;;;;;;;;;11.10;97.00;;;;;;5042162;28;19928;-70
2022/11/02 08:06:24;;;;;;;;;;;11.10;97.00;;;;;;5037681;28;19968;-71
2022/11/02 08:08:50;;;;;;;;;;;11.10;97.00;;;;;;5038517;28;19936;-71
2022/11/02 08:11:17;;;;;;;;;;;11.10;96.90;;;;;;5041852;28;19935;-71
2022/11/02 08:13:43;;;;;;;;;;;11.10;96.90;;;;;;5038941;28;19929;-69
2022/11/02 08:16:10;;;;;;;;;;;11.10;96.80;;;;;;5039103;28;20556;-72
2022/11/02 08:18:36;;;;;;;;;;;11.20;97.20;;;;;;5045298;28;20460;-73
2022/11/02 08:21:04;;;;;;;;;;;11.20;96.80;;;;;;5040331;28;19929;-70
2022/11/02 08:23:32;;;;;;;;;;;11.20;96.80;;;;;;5034312;28;20500;-71
2022/11/02 08:25:59;;;;;;;;;;;11.20;96.70;;;;;;5039139;28;19957;-70
2022/11/02 08:28:26;;;;;;;;;;;11.20;96.80;;;;;;5045456;28;20020;-72
2022/11/02 08:30:53;;;;;;;;;;;11.20;96.60;;;;;;5039225;28;20504;-70
2022/11/02 08:33:20;;;;;;;;;;;11.30;96.60;;;;;;5045022;28;20007;-71
2022/11/02 08:35:47;;;;;;;;;;;11.30;96.60;;;;;;5045515;28;19936;-71
2022/11/02 08:38:14;;;;;;;;;;;11.30;96.50;;;;;;5036728;28;19928;-72
2022/11/02 08:40:42;;;;;;;;;;;11.30;96.50;;;;;;5040758;28;19966;-69
2022/11/02 08:43:09;;;;;;;;;;;11.30;96.50;;;;;;5036914;28;20401;-69
2022/11/02 08:45:37;;;;;;;;;;;11.30;96.50;;;;;;5035272;28;19929;-72
2022/11/02 08:48:04;;;;;;;;;;;11.30;96.50;;;;;;5041496;28;20033;-71
2022/11/02 08:50:32;;;;;;;;;;;11.30;96.40;;;;;;5039711;28;20221;-71
2022/11/02 08:52:59;;;;;;;;;;;11.30;96.40;;;;;;5040101;28;19932;-68
2022/11/02 08:55:25;;;;;;;;;;;11.40;96.40;;;;;;5037236;28;19951;-72
2022/11/02 08:57:54;;;;;;;;;;;11.40;96.50;;;;;;5042029;28;19936;-70
2022/11/02 09:00:22;;;;;;;;;;;11.40;96.50;;;;;;5038173;28;19929;-69
2022/11/02 09:02:58;;;;;;;;;;;11.40;96.40;;;;;;5041113;28;19932;-71
2022/11/02 09:05:25;;;;;;;;;;;11.40;96.30;;;;;;5039301;28;19936;-71
2022/11/02 09:07:54;;;;;;;;;;;11.40;96.30;;;;;;5035889;28;21000;-73
2022/11/02 09:10:20;;;;;;;;;;;11.50;96.30;;;;;;5038610;28;19936;-71
2022/11/02 09:12:47;;;;;;;;;;;11.50;96.30;;;;;;5040518;28;19933;-70
2022/11/02 09:15:15;;;;;;;;;;;11.50;96.20;;;;;;5036473;28;20407;-71
2022/11/02 09:17:41;;;;;;;;;;;11.50;96.20;;;;;;5034676;28;19928;-70
2022/11/02 09:20:08;;;;;;;;;;;11.50;96.20;;;;;;5040131;28;19937;-70
2022/11/02 09:22:35;;;;;;;;;;;11.50;96.10;;;;;;5043446;28;19929;-73
2022/11/02 09:25:02;;;;;;;;;;;11.50;96.10;;;;;;5040803;28;19935;-70
2022/11/02 09:27:29;;;;;;;;;;;11.50;96.00;;;;;;5042457;28;19932;-71
2022/11/02 09:29:55;;;;;;;;;;;11.50;95.90;;;;;;5044032;28;19929;-71
2022/11/02 09:32:23;;;;;;;;;;;11.60;96.00;;;;;;5036406;28;19936;-70
2022/11/02 09:34:51;;;;;;;;;;;11.60;95.90;;;;;;5044063;28;19936;-70
2022/11/02 09:37:17;;;;;;;;;;;11.60;95.80;;;;;;5041196;28;20010;-69
2022/11/02 09:39:44;;;;;;;;;;;11.60;95.80;;;;;;5033776;28;19929;-72
2022/11/02 09:42:14;;;;;;;;;;;11.70;95.80;;;;;;5039138;28;19929;-69
2022/11/02 09:44:46;;;;;;;;;;;11.70;95.80;;;;;;5041001;28;19929;-71
2022/11/02 09:47:13;;;;;;;;;;;11.70;95.70;;;;;;5034668;28;19940;-71
2022/11/02 09:49:42;;;;;;;;;;;11.70;95.70;;;;;;5039431;28;19929;-70
2022/11/02 09:52:13;;;;;;;;;;;11.80;95.60;;;;;;5035294;28;20404;-70
2022/11/02 09:54:41;;;;;;;;;;;11.90;95.50;;;;;;5037559;28;19929;-71
2022/11/02 09:57:09;;;;;;;;;;;11.90;95.30;;;;;;5042709;28;19935;-70
2022/11/02 09:59:36;;;;;;;;;;;12.00;95.10;;;;;;5040306;28;19935;-69
2022/11/02 10:02:04;;;;;;;;;;;12.10;95.00;;;;;;5039147;28;19929;-72
2022/11/02 10:04:49;;;;;;;;;;;12.10;94.90;;;;;;5042837;28;19956;-70
2022/11/02 10:07:21;;;;;;;;;;;12.20;94.80;;;;;;5040842;28;19950;-72
2022/11/02 10:09:51;;;;;;;;;;;12.20;94.90;;;;;;5042599;28;19928;-74
2022/11/02 10:12:23;;;;;;;;;;;12.20;94.50;;;;;;5037041;28;19928;-73
2022/11/02 10:14:54;;;;;;;;;;;12.30;94.50;;;;;;5043774;28;19940;-71
2022/11/02 10:17:22;;;;;;;;;;;12.30;94.50;;;;;;5039274;28;19928;-70
2022/11/02 10:19:53;;;;;;;;;;;12.30;94.50;;;;;;5037429;28;20321;-71
2022/11/02 10:22:22;;;;;;;;;;;12.40;94.20;;;;;;5040899;28;19935;-70
2022/11/02 10:24:49;;;;;;;;;;;12.40;94.00;;;;;;5048011;28;20316;-70
2022/11/02 10:27:18;;;;;;;;;;;12.40;93.90;;;;;;5040684;28;19929;-69
2022/11/02 10:29:47;;;;;;;;;;;12.50;93.80;;;;;;5047355;28;19929;-70
2022/11/02 10:32:14;;;;;;;;;;;12.60;93.60;;;;;;5042047;28;19932;-74
2022/11/02 10:34:42;;;;;;;;;;;12.70;93.40;;;;;;5046244;28;19928;-70
2022/11/02 10:37:17;;;;;;;;;;;12.70;93.20;;;;;;5041461;28;19967;-70
2022/11/02 10:39:47;;;;;;;;;;;12.80;93.10;;;;;;5035761;28;19936;-71
2022/11/02 10:42:23;;;;;;;;;;;12.90;92.80;;;;;;5046502;28;19932;-73
2022/11/02 10:45:10;;;;;;;;;;;13.00;92.90;;;;;;5043408;28;19928;-69
2022/11/02 10:47:39;;;;;;;;;;;13.00;92.70;;;;;;5034897;28;19935;-71
2022/11/02 10:50:27;;;;;;;;;;;13.10;92.40;;;;;;5039089;28;19928;-71
2022/11/02 10:52:54;;;;;;;;;;;13.10;92.40;;;;;;5043302;28;19928;-70
2022/11/02 10:55:25;;;;;;;;;;;13.20;92.10;;;;;;5040377;28;19928;-71
2022/11/02 10:57:54;;;;;;;;;;;13.20;91.70;;;;;;5044460;28;19936;-71
2022/11/02 11:00:28;;;;;;;;;;;13.20;91.90;;;;;;5038512;28;19929;-70
2022/11/02 11:03:08;;;;;;;;;;;13.20;91.90;;;;;;5038245;28;19933;-70
2022/11/02 11:05:36;;;;;;;;;;;13.30;91.70;;;;;;5043387;28;19928;-70
2022/11/02 11:08:03;;;;;;;;;;;13.30;91.80;;;;;;5045592;28;19928;-71
2022/11/02 11:10:35;;;;;;;;;;;13.30;92.00;;;;;;5038301;28;20014;-70
2022/11/02 11:13:02;;;;;;;;;;;13.40;91.40;;;;;;5045401;28;20420;-71
2022/11/02 11:15:31;;;;;;;;;;;13.40;91.60;;;;;;5037111;28;20444;-68
2022/11/02 11:17:58;;;;;;;;;;;13.50;91.10;;;;;;5046863;28;19929;-70
2022/11/02 11:20:30;;;;;;;;;;;13.50;90.90;;;;;;5037592;28;20411;-72
2022/11/02 11:23:24;;;;;;;;;;;13.60;91.00;;;;;;5039148;28;19929;-70
2022/11/02 11:25:56;;;;;;;;;;;13.70;90.40;;;;;;5016557;28;19932;-68
2022/11/02 11:28:24;;;;;;;;;;;13.80;90.10;;;;;;5046720;28;19929;-73
2022/11/02 11:31:02;;;;;;;;;;;13.90;89.50;;;;;;5036089;28;19936;-70
2022/11/02 11:33:30;;;;;;;;;;;14.00;89.10;;;;;;5046195;28;19928;-71
2022/11/02 11:35:56;;;;;;;;;;;14.00;88.20;;;;;;5038307;28;19990;-70
2022/11/02 11:38:25;;;;;;;;;;;14.10;88.70;;;;;;5036129;28;20016;-70
2022/11/02 11:40:53;;;;;;;;;;;14.20;87.90;;;;;;5034247;28;19928;-70
2022/11/02 11:43:22;;;;;;;;;;;14.20;87.60;;;;;;5041157;28;19976;-70
2022/11/02 11:45:58;;;;;;;;;;;14.30;87.00;;;;;;5033753;28;20304;-68
2022/11/02 11:48:29;;;;;;;;;;;14.40;86.20;;;;;;5042070;28;19933;-70
2022/11/02 11:50:56;;;;;;;;;;;14.40;85.90;;;;;;5040080;28;19937;-70
2022/11/02 11:53:23;;;;;;;;;;;14.50;85.30;;;;;;5037057;28;19928;-72
2022/11/02 11:55:51;;;;;;;;;;;14.50;85.80;;;;;;5039069;28;19933;-71
2022/11/02 11:58:19;;;;;;;;;;;14.50;85.50;;;;;;5045956;28;19936;-69
2022/11/02 12:01:01;;;;;;;;;;;14.60;84.90;;;;;;5037088;28;19929;-73
2022/11/02 12:03:27;;;;;;;;;;;14.70;85.30;;;;;;5034988;28;19936;-73
2022/11/02 12:05:59;;;;;;;;;;;14.70;85.10;;;;;;5044463;28;19929;-72
2022/11/02 12:08:34;;;;;;;;;;;14.70;84.50;;;;;;5035718;28;19929;-71
2022/11/02 12:11:07;;;;;;;;;;;14.80;85.40;;;;;;5041266;28;19929;-70
2022/11/02 12:13:45;;;;;;;;;;;14.90;84.90;;;;;;5033284;28;20530;-69
2022/11/02 12:16:19;;;;;;;;;;;14.80;84.40;;;;;;5037230;28;20304;-74
2022/11/02 12:18:50;;;;;;;;;;;14.90;83.80;;;;;;5039696;28;19936;-69
2022/11/02 12:21:22;;;;;;;;;;;15.00;83.90;;;;;;5036995;28;19929;-70
2022/11/02 12:23:59;;;;;;;;;;;15.00;82.80;;;;;;5045094;28;20351;-71
2022/11/02 12:26:31;;;;;;;;;;;15.00;81.90;;;;;;5037278;28;20399;-71
2022/11/02 12:29:04;;;;;;;;;;;15.10;81.30;;;;;;5045264;28;19929;-71
2022/11/02 12:31:35;;;;;;;;;;;15.10;81.80;;;;;;5030700;28;20317;-74
2022/11/02 12:34:17;;;;;;;;;;;15.20;81.40;;;;;;5043633;28;19948;-72
2022/11/02 12:36:48;;;;;;;;;;;15.20;82.30;;;;;;5043487;28;19929;-71
2022/11/02 12:39:20;;;;;;;;;;;15.20;82.70;;;;;;5040923;28;19928;-69
2022/11/02 12:41:53;;;;;;;;;;;15.20;82.10;;;;;;5044724;28;19936;-71
2022/11/02 12:44:29;;;;;;;;;;;15.30;81.30;;;;;;5034138;28;19936;-70
2022/11/02 12:47:01;;;;;;;;;;;15.30;81.50;;;;;;5035430;28;19948;-74
2022/11/02 12:49:35;;;;;;;;;;;15.30;81.30;;;;;;5032839;28;20647;-70
2022/11/02 12:52:06;;;;;;;;;;;15.30;82.10;;;;;;5042641;28;19936;-71
2022/11/02 12:54:36;;;;;;;;;;;15.40;79.60;;;;;;5034514;28;20846;-74
2022/11/02 12:57:03;;;;;;;;;;;15.50;80.40;;;;;;5038164;28;20444;-70
2022/11/02 12:59:32;;;;;;;;;;;15.50;79.60;;;;;;5041407;28;20385;-70
2022/11/02 13:02:04;;;;;;;;;;;15.50;79.70;;;;;;5032679;28;19929;-70
2022/11/02 13:04:32;;;;;;;;;;;15.50;78.20;;;;;;5041469;28;20007;-71
2022/11/02 13:07:01;;;;;;;;;;;15.60;79.30;;;;;;5042343;28;20393;-71
2022/11/02 13:09:30;;;;;;;;;;;15.60;80.30;;;;;;5035806;28;19940;-71
2022/11/02 13:11:59;;;;;;;;;;;15.60;78.40;;;;;;5037030;28;20530;-69
2022/11/02 13:14:29;;;;;;;;;;;15.60;78.70;;;;;;5043984;28;19929;-70
2022/11/02 13:16:57;;;;;;;;;;;15.70;77.80;;;;;;5034081;28;19933;-71
2022/11/02 13:19:29;;;;;;;;;;;15.80;77.80;;;;;;5036106;28;20381;-71
2022/11/02 13:21:56;;;;;;;;;;;15.80;78.20;;;;;;5041604;28;19940;-70
2022/11/02 13:24:24;;;;;;;;;;;15.80;78.00;;;;;;5036969;28;19951;-72
2022/11/02 13:26:51;;;;;;;;;;;15.80;78.30;;;;;;5038977;28;19929;-74
2022/11/02 13:29:20;;;;;;;;;;;15.80;78.30;;;;;;5041259;28;19929;-72
2022/11/02 13:31:50;;;;;;;;;;;15.80;78.20;;;;;;5034073;28;19929;-73
2022/11/02 13:34:19;;;;;;;;;;;15.80;77.40;;;;;;5044061;28;19929;-70
2022/11/02 13:36:47;;;;;;;;;;;15.90;77.10;;;;;;5042657;28;20447;-72
2022/11/02 13:39:16;;;;;;;;;;;15.90;78.40;;;;;;5038547;28;19928;-70
2022/11/02 13:41:50;;;;;;;;;;;15.90;78.60;;;;;;5043337;28;19929;-71
2022/11/02 13:44:31;;;;;;;;;;;15.90;77.90;;;;;;5040562;28;19928;-70
2022/11/02 13:47:02;;;;;;;;;;;15.90;79.40;;;;;;5036652;28;19935;-70
2022/11/02 13:49:30;;;;;;;;;;;15.90;79.70;;;;;;5041493;28;19939;-71
2022/11/02 13:52:00;;;;;;;;;;;16.00;77.80;;;;;;5036112;28;20376;-70
2022/11/02 13:54:28;;;;;;;;;;;16.00;78.80;;;;;;5038554;28;19935;-75
2022/11/02 13:56:56;;;;;;;;;;;16.00;79.60;;;;;;5038417;28;19935;-72
2022/11/02 13:59:25;;;;;;;;;;;16.00;79.80;;;;;;5043734;28;19936;-73
2022/11/02 14:01:53;;;;;;;;;;;16.00;79.00;;;;;;5036250;28;20369;-71
2022/11/02 14:04:20;;;;;;;;;;;16.00;78.70;;;;;;5047387;28;19935;-74
2022/11/02 14:06:49;;;;;;;;;;;16.00;79.60;;;;;;5041916;28;19929;-71
2022/11/02 14:09:23;;;;;;;;;;;16.00;78.60;;;;;;5038561;28;19929;-73
2022/11/02 14:11:50;;;;;;;;;;;16.00;79.30;;;;;;5048360;28;19928;-72
2022/11/02 14:14:22;;;;;;;;;;;16.00;79.10;;;;;;5039953;28;19936;-71
2022/11/02 14:16:58;;;;;;;;;;;16.00;79.90;;;;;;5045577;28;19928;-70
2022/11/02 14:19:30;;;;;;;;;;;15.90;80.50;;;;;;5046534;28;19929;-71
2022/11/02 14:22:08;;;;;;;;;;;15.90;79.90;;;;;;5036067;28;19936;-72
2022/11/02 14:24:55;;;;;;;;;;;15.80;80.50;;;;;;5041942;28;20400;-72
2022/11/02 14:27:29;;;;;;;;;;;15.80;80.40;;;;;;5043440;28;19980;-70
2022/11/02 14:29:55;;;;;;;;;;;15.70;80.00;;;;;;5046848;28;19929;-72
2022/11/02 14:32:29;;;;;;;;;;;15.70;79.50;;;;;;5044533;28;19929;-72
2022/11/02 14:35:05;;;;;;;;;;;15.60;81.00;;;;;;5047363;28;20290;-71
2022/11/02 14:37:38;;;;;;;;;;;15.60;80.50;;;;;;5037392;28;19929;-71
2022/11/02 14:40:09;;;;;;;;;;;15.50;80.90;;;;;;5042932;28;19952;-70